createdAt,value
2023-03-15T00:01:48.665Z,94002.94
2023-03-15T00:04:15.489Z,94011.06
2023-03-15T00:06:42.267Z,94038.81
2023-03-15T00:09:09.500Z,93984.38
2023-03-15T00:11:36.249Z,94005.81
2023-03-15T00:14:03.050Z,94012.38
2023-03-15T00:16:30.108Z,94015.13
2023-03-15T00:18:57.032Z,94001.16
2023-03-15T00:21:24.674Z,94048.34
2023-03-15T00:23:51.461Z,93968.66
2023-03-15T00:26:18.319Z,94031.66
2023-03-15T00:28:45.250Z,94039.13
2023-03-15T00:31:17.676Z,94024.22
2023-03-15T00:33:44.887Z,94038.66
2023-03-15T00:36:12.938Z,94002.16
2023-03-15T00:38:42.929Z,94053.25
2023-03-15T00:41:12.507Z,93958.44
2023-03-15T00:43:41.693Z,93997.50
2023-03-15T00:46:09.423Z,94014.09
2023-03-15T00:48:36.698Z,93998.22
2023-03-15T00:51:04.532Z,94072.72
2023-03-15T00:53:31.546Z,94039.75
2023-03-15T00:55:58.430Z,94020.44
2023-03-15T00:58:26.570Z,94048.03
2023-03-15T01:00:55.168Z,93996.34
2023-03-15T01:03:21.850Z,94020.78
2023-03-15T01:05:48.658Z,93997.00
2023-03-15T01:08:15.637Z,94020.25
2023-03-15T01:10:42.330Z,94059.88
2023-03-15T01:13:09.116Z,94053.13
2023-03-15T01:15:36.049Z,94074.97
2023-03-15T01:18:03.089Z,94059.03
2023-03-15T01:20:29.849Z,94054.72
2023-03-15T01:22:56.742Z,94058.63
2023-03-15T01:25:23.454Z,94078.50
2023-03-15T01:27:50.750Z,94052.41
2023-03-15T01:30:17.548Z,94049.16
2023-03-15T01:32:44.323Z,94014.28
2023-03-15T01:35:11.862Z,93996.56
2023-03-15T01:37:38.572Z,94010.41
2023-03-15T01:40:06.860Z,94049.34
2023-03-15T01:42:33.649Z,94032.66
2023-03-15T01:45:00.395Z,94036.06
2023-03-15T01:47:28.201Z,94054.31
2023-03-15T01:50:05.672Z,94066.84
2023-03-15T01:52:38.040Z,94081.59
2023-03-15T01:55:11.817Z,94050.75
2023-03-15T01:57:56.855Z,94085.63
2023-03-15T02:00:27.677Z,94091.84
2023-03-15T02:03:10.789Z,94097.09
2023-03-15T02:05:46.467Z,94114.03
2023-03-15T02:08:26.026Z,94093.41
2023-03-15T02:10:56.986Z,94078.00
2023-03-15T02:13:27.264Z,94108.78
2023-03-15T02:15:57.657Z,94102.31
2023-03-15T02:18:30.940Z,94067.13
2023-03-15T02:21:08.703Z,94068.63
2023-03-15T02:23:35.863Z,94130.41
2023-03-15T02:26:29.044Z,94086.56
2023-03-15T02:28:58.596Z,94078.13
2023-03-15T02:31:25.896Z,94091.22
2023-03-15T02:33:56.323Z,94089.69
2023-03-15T02:36:27.376Z,94075.66
2023-03-15T02:38:57.168Z,94100.47
2023-03-15T02:41:36.378Z,94137.75
2023-03-15T02:44:11.159Z,94098.94
2023-03-15T02:46:38.053Z,94125.34
2023-03-15T02:49:06.568Z,94135.13
2023-03-15T02:51:34.073Z,94100.97
2023-03-15T02:54:00.857Z,94113.66
2023-03-15T02:56:27.737Z,94104.72
2023-03-15T02:58:54.749Z,94086.25
2023-03-15T03:01:21.641Z,94161.78
2023-03-15T03:03:48.548Z,94143.78
2023-03-15T03:06:16.814Z,94153.81
2023-03-15T03:08:47.294Z,94121.28
2023-03-15T03:11:16.923Z,94185.06
2023-03-15T03:13:44.140Z,94141.75
2023-03-15T03:16:11.555Z,94144.25
2023-03-15T03:18:40.210Z,94191.59
2023-03-15T03:21:07.962Z,94200.16
2023-03-15T03:23:36.478Z,94182.53
2023-03-15T03:26:04.514Z,94181.53
2023-03-15T03:28:33.295Z,94208.72
2023-03-15T03:31:02.119Z,94194.38
2023-03-15T03:33:29.640Z,94225.13
2023-03-15T03:36:02.188Z,94225.53
2023-03-15T03:38:29.455Z,94210.31
2023-03-15T03:40:58.545Z,94272.94
2023-03-15T03:43:28.945Z,94278.28
2023-03-15T03:45:56.278Z,94287.81
2023-03-15T03:48:23.831Z,94329.56
2023-03-15T03:50:50.882Z,94297.50
2023-03-15T03:53:18.234Z,94335.31
2023-03-15T03:55:46.517Z,94323.19
2023-03-15T03:58:17.891Z,94315.88
2023-03-15T04:00:59.182Z,94310.16
2023-03-15T04:03:31.157Z,94346.72
2023-03-15T04:06:05.875Z,94342.94
2023-03-15T04:08:37.497Z,94334.91
2023-03-15T04:11:05.230Z,94398.59
2023-03-15T04:13:35.367Z,94304.84
2023-03-15T04:16:03.938Z,94284.19
2023-03-15T04:18:37.660Z,94321.47
2023-03-15T04:21:04.533Z,94336.81
2023-03-15T04:23:31.351Z,94358.69
2023-03-15T04:26:16.771Z,94344.41
2023-03-15T04:28:59.320Z,94369.53
2023-03-15T04:31:50.343Z,94403.91
2023-03-15T04:34:28.365Z,94399.38
2023-03-15T04:37:24.661Z,94394.59
2023-03-15T04:40:08.151Z,94389.31
2023-03-15T04:42:57.306Z,94427.88
2023-03-15T04:45:24.873Z,94425.97
2023-03-15T04:48:12.402Z,94426.31
2023-03-15T04:50:59.418Z,94437.84
2023-03-15T04:53:41.073Z,94426.69
2023-03-15T04:56:30.137Z,94456.88
2023-03-15T04:59:17.352Z,94520.56
2023-03-15T05:02:03.955Z,94534.16
2023-03-15T05:04:40.721Z,94537.63
2023-03-15T05:07:29.128Z,94559.66
2023-03-15T05:10:14.473Z,94565.56
2023-03-15T05:13:01.757Z,94553.34
2023-03-15T05:15:54.719Z,94567.44
2023-03-15T05:18:45.481Z,94593.66
2023-03-15T05:21:32.923Z,94572.22
2023-03-15T05:24:18.129Z,94556.03
2023-03-15T05:26:54.429Z,94587.88
2023-03-15T05:29:36.281Z,94596.44
2023-03-15T05:32:16.792Z,94598.13
2023-03-15T05:34:54.795Z,94602.81
2023-03-15T05:37:40.014Z,94586.56
2023-03-15T05:40:44.024Z,94599.13
2023-03-15T05:43:26.322Z,94590.06
2023-03-15T05:46:11.614Z,94655.53
2023-03-15T05:48:56.641Z,94484.31
2023-03-15T05:51:31.494Z,94573.66
2023-03-15T05:54:17.784Z,94609.69
2023-03-15T05:57:03.376Z,94614.94
2023-03-15T05:59:35.862Z,94624.19
2023-03-15T06:02:40.120Z,94611.44
2023-03-15T06:05:25.416Z,94639.88
2023-03-15T06:07:52.422Z,94666.97
2023-03-15T06:10:20.637Z,94628.59
2023-03-15T06:12:47.419Z,94700.41
2023-03-15T06:15:16.874Z,94709.97
2023-03-15T06:17:44.977Z,94755.88
2023-03-15T06:20:12.313Z,94689.94
2023-03-15T06:22:40.074Z,94649.25
2023-03-15T06:25:17.220Z,94684.81
2023-03-15T06:27:44.702Z,94692.09
2023-03-15T06:30:11.980Z,94691.56
2023-03-15T06:32:38.920Z,94683.84
2023-03-15T06:35:06.487Z,94698.81
2023-03-15T06:37:36.282Z,94705.38
2023-03-15T06:40:08.027Z,94708.94
2023-03-15T06:42:35.458Z,94678.59
2023-03-15T06:45:03.572Z,94732.00
2023-03-15T06:47:30.793Z,94702.59
2023-03-15T06:49:57.626Z,94720.19
2023-03-15T06:52:25.790Z,94722.91
2023-03-15T06:54:52.674Z,94741.03
2023-03-15T06:57:19.522Z,94808.88
2023-03-15T06:59:46.319Z,94840.66
2023-03-15T07:02:18.602Z,94791.41
2023-03-15T07:04:45.872Z,94775.34
2023-03-15T07:07:13.837Z,94787.41
2023-03-15T07:09:41.185Z,94764.94
2023-03-15T07:12:09.705Z,94747.28
2023-03-15T07:14:36.696Z,94774.28
2023-03-15T07:17:04.665Z,94740.91
2023-03-15T07:19:31.456Z,94704.59
2023-03-15T07:21:59.320Z,94699.91
2023-03-15T07:24:27.671Z,94738.94
2023-03-15T07:26:56.535Z,94759.19
2023-03-15T07:29:24.311Z,94703.59
2023-03-15T07:31:51.773Z,94774.56
2023-03-15T07:34:18.763Z,94726.59
2023-03-15T07:36:45.785Z,94762.41
2023-03-15T07:39:12.881Z,94758.63
2023-03-15T07:41:39.759Z,94822.03
2023-03-15T07:44:20.554Z,94825.19
2023-03-15T07:46:47.363Z,94776.81
2023-03-15T07:49:15.436Z,94736.59
2023-03-15T07:51:42.790Z,94811.72
2023-03-15T07:54:10.677Z,94826.00
2023-03-15T07:56:37.556Z,94868.31
2023-03-15T07:59:04.248Z,94834.53
2023-03-15T08:01:31.021Z,94820.03
2023-03-15T08:03:58.159Z,94789.66
2023-03-15T08:06:25.082Z,94784.66
2023-03-15T08:08:51.797Z,94747.34
2023-03-15T08:11:18.500Z,94779.84
2023-03-15T08:13:45.933Z,94767.66
2023-03-15T08:16:12.707Z,94792.81
2023-03-15T08:18:39.871Z,94793.63
2023-03-15T08:21:06.596Z,94792.91
2023-03-15T08:23:33.445Z,94740.44
2023-03-15T08:26:01.544Z,94739.09
2023-03-15T08:28:28.466Z,94767.38
2023-03-15T08:30:55.212Z,94805.22
2023-03-15T08:33:22.402Z,94833.13
2023-03-15T08:35:53.956Z,94837.56
2023-03-15T08:38:20.751Z,94775.94
2023-03-15T08:40:47.668Z,94784.63
2023-03-15T08:43:14.939Z,94812.81
2023-03-15T08:45:59.730Z,94826.16
2023-03-15T08:48:27.820Z,94781.44
2023-03-15T08:50:55.308Z,94794.56
2023-03-15T08:53:22.073Z,94778.31
2023-03-15T08:55:49.689Z,94797.88
2023-03-15T08:58:16.790Z,94848.81
2023-03-15T09:00:43.731Z,94811.94
2023-03-15T09:03:11.443Z,94848.06
2023-03-15T09:05:38.191Z,94805.25
2023-03-15T09:08:05.519Z,94808.38
2023-03-15T09:10:32.329Z,94751.78
2023-03-15T09:12:59.145Z,94767.53
2023-03-15T09:15:26.818Z,94842.28
2023-03-15T09:17:53.573Z,94819.34
2023-03-15T09:20:22.941Z,94839.81
2023-03-15T09:22:54.361Z,94829.13
2023-03-15T09:25:22.185Z,94820.50
2023-03-15T09:27:49.259Z,94823.66
2023-03-15T09:30:17.320Z,94796.34
2023-03-15T09:32:46.831Z,94764.69
2023-03-15T09:35:17.005Z,94836.78
2023-03-15T09:37:44.328Z,94828.13
2023-03-15T09:40:27.050Z,94818.19
2023-03-15T09:43:35.426Z,94750.94
2023-03-15T09:46:24.008Z,94758.09
2023-03-15T09:49:01.114Z,94728.19
2023-03-15T09:51:51.542Z,94743.41
2023-03-15T09:54:19.356Z,94770.09
2023-03-15T09:56:53.008Z,94782.94
2023-03-15T09:59:22.925Z,94849.00
2023-03-15T10:01:54.709Z,94808.88
2023-03-15T10:04:42.064Z,94794.88
2023-03-15T10:07:14.691Z,94781.56
2023-03-15T10:09:43.547Z,94864.56
2023-03-15T10:12:13.743Z,94840.44
2023-03-15T10:15:07.506Z,94836.03
2023-03-15T10:17:40.181Z,94879.53
2023-03-15T10:20:12.420Z,94893.28
2023-03-15T10:23:26.575Z,94836.31
2023-03-15T10:25:54.592Z,94791.22
2023-03-15T10:28:28.848Z,94850.88
2023-03-15T10:31:01.370Z,94821.47
2023-03-15T10:33:29.750Z,94866.91
2023-03-15T10:36:09.682Z,94852.66
2023-03-15T10:38:38.652Z,94916.41
2023-03-15T10:41:07.316Z,94878.38
2023-03-15T10:43:37.434Z,94827.84
2023-03-15T10:46:04.170Z,94836.69
2023-03-15T10:48:39.396Z,94806.22
2023-03-15T10:51:23.274Z,94830.38
2023-03-15T10:54:13.411Z,94876.13
2023-03-15T10:57:01.299Z,94807.19
2023-03-15T10:59:31.525Z,94821.88
2023-03-15T11:02:20.257Z,94897.84
2023-03-15T11:05:02.749Z,94905.13
2023-03-15T11:07:30.037Z,94871.84
2023-03-15T11:10:02.569Z,94923.81
2023-03-15T11:12:32.410Z,94945.72
2023-03-15T11:15:13.995Z,94928.31
2023-03-15T11:17:47.376Z,94918.03
2023-03-15T11:20:36.372Z,94916.81
2023-03-15T11:23:15.305Z,94920.16
2023-03-15T11:25:42.432Z,94917.81
2023-03-15T11:28:18.184Z,94914.38
2023-03-15T11:30:48.617Z,94953.44
2023-03-15T11:33:27.635Z,94824.59
2023-03-15T11:35:58.375Z,94902.47
2023-03-15T11:38:44.036Z,94785.88
2023-03-15T11:41:27.829Z,94784.19
2023-03-15T11:44:33.706Z,94740.41
2023-03-15T11:47:17.274Z,94753.63
2023-03-15T11:49:55.867Z,94794.16
2023-03-15T11:52:26.264Z,94852.34
2023-03-15T11:54:59.769Z,94877.56
2023-03-15T11:57:29.764Z,94848.88
2023-03-15T11:59:58.196Z,94828.31
2023-03-15T12:02:26.406Z,94837.59
2023-03-15T12:04:54.997Z,94815.06
2023-03-15T12:07:24.388Z,94858.22
2023-03-15T12:09:56.223Z,94825.91
2023-03-15T12:12:26.186Z,94863.75
2023-03-15T12:15:14.561Z,94849.19
2023-03-15T12:17:50.783Z,94859.56
2023-03-15T12:20:21.657Z,94851.34
2023-03-15T12:23:18.475Z,94901.53
2023-03-15T12:25:58.586Z,94886.28
2023-03-15T12:28:35.043Z,94878.84
2023-03-15T12:31:09.030Z,94885.66
2023-03-15T12:33:48.866Z,94895.84
2023-03-15T12:36:46.447Z,94897.69
2023-03-15T12:39:14.378Z,94916.81
2023-03-15T12:41:44.385Z,94935.53
2023-03-15T12:44:33.821Z,94877.75
2023-03-15T12:47:03.510Z,94934.09
2023-03-15T12:49:35.001Z,94972.00
2023-03-15T12:52:16.145Z,94968.91
2023-03-15T12:54:55.509Z,94993.16
2023-03-15T12:57:29.536Z,94944.44
2023-03-15T12:59:59.954Z,94943.31
2023-03-15T13:02:44.120Z,94929.94
2023-03-15T13:05:24.145Z,94954.13
2023-03-15T13:08:18.152Z,94958.97
2023-03-15T13:11:00.638Z,94925.72
2023-03-15T13:13:48.141Z,94899.88
2023-03-15T13:16:18.140Z,94935.88
2023-03-15T13:18:54.939Z,94927.84
2023-03-15T13:21:34.300Z,94918.25
2023-03-15T13:24:03.189Z,94948.41
2023-03-15T13:26:49.181Z,94940.84
2023-03-15T13:29:27.251Z,94942.25
2023-03-15T13:32:14.546Z,94920.81
2023-03-15T13:34:44.056Z,94911.22
2023-03-15T13:37:27.034Z,94903.69
2023-03-15T13:40:15.956Z,94893.19
2023-03-15T13:42:43.452Z,94889.06
2023-03-15T13:45:16.095Z,94792.34
2023-03-15T13:47:45.892Z,94808.44
2023-03-15T13:50:19.786Z,94825.19
2023-03-15T13:52:49.396Z,94877.03
2023-03-15T13:55:21.360Z,94838.28
2023-03-15T13:57:57.532Z,94880.22
2023-03-15T14:00:25.120Z,94884.19
2023-03-15T14:03:06.414Z,94872.25
2023-03-15T14:05:43.483Z,94886.31
2023-03-15T14:08:34.611Z,94878.25
2023-03-15T14:11:13.433Z,94888.06
2023-03-15T14:13:59.463Z,94890.59
2023-03-15T14:17:03.214Z,94772.34
2023-03-15T14:19:34.994Z,94821.69
2023-03-15T14:22:18.945Z,94791.84
2023-03-15T14:24:49.933Z,94870.16
2023-03-15T14:27:20.333Z,94886.75
2023-03-15T14:29:54.520Z,94883.94
2023-03-15T14:32:36.408Z,94873.44
2023-03-15T14:35:23.809Z,94885.22
2023-03-15T14:38:14.992Z,94872.81
2023-03-15T14:40:41.948Z,94871.38
2023-03-15T14:43:10.289Z,94869.31
2023-03-15T14:45:40.325Z,94857.25
2023-03-15T14:48:12.689Z,94857.97
2023-03-15T14:50:42.513Z,94851.34
2023-03-15T14:53:15.277Z,94881.06
2023-03-15T14:55:42.084Z,94855.81
2023-03-15T14:58:14.934Z,94859.25
2023-03-15T15:00:43.100Z,94867.94
2023-03-15T15:03:35.652Z,94865.03
2023-03-15T15:06:04.309Z,94870.94
2023-03-15T15:08:32.241Z,94877.59
2023-03-15T15:11:00.005Z,94884.91
2023-03-15T15:13:29.828Z,94893.31
2023-03-15T15:15:57.210Z,94902.88
2023-03-15T15:18:27.598Z,94874.66
2023-03-15T15:20:56.606Z,94877.38
2023-03-15T15:23:27.146Z,94881.88
2023-03-15T15:25:57.521Z,94887.06
2023-03-15T15:28:34.685Z,94876.63
2023-03-15T15:31:03.056Z,94881.31
2023-03-15T15:33:29.896Z,94887.47
2023-03-15T15:35:58.330Z,94861.81
2023-03-15T15:38:38.181Z,94844.25
2023-03-15T15:41:13.104Z,94834.91
2023-03-15T15:43:41.244Z,94851.34
2023-03-15T15:46:10.377Z,94844.88
2023-03-15T15:48:37.358Z,94878.13
2023-03-15T15:51:16.948Z,94883.13
2023-03-15T15:53:43.793Z,94864.56
2023-03-15T15:56:14.464Z,94878.56
2023-03-15T15:58:42.637Z,94874.88
2023-03-15T16:01:13.675Z,94873.28
2023-03-15T16:03:41.568Z,94876.69
2023-03-15T16:06:17.128Z,94862.50
2023-03-15T16:08:45.050Z,94874.91
2023-03-15T16:11:14.921Z,94873.06
2023-03-15T16:13:42.683Z,94887.63
2023-03-15T16:16:16.481Z,94900.97
2023-03-15T16:18:44.650Z,94888.84
2023-03-15T16:21:22.115Z,94884.06
2023-03-15T16:23:55.892Z,94876.75
2023-03-15T16:26:22.991Z,94870.13
2023-03-15T16:28:52.094Z,94881.81
2023-03-15T16:31:24.742Z,94857.91
2023-03-15T16:33:51.681Z,94838.78
2023-03-15T16:36:21.736Z,94872.00
2023-03-15T16:38:48.959Z,94853.34
2023-03-15T16:41:17.624Z,94857.97
2023-03-15T16:43:47.323Z,94862.00
2023-03-15T16:46:17.583Z,94875.19
2023-03-15T16:48:44.471Z,94870.06
2023-03-15T16:51:15.004Z,94841.56
2023-03-15T16:53:44.740Z,94818.00
2023-03-15T16:56:15.523Z,94819.97
2023-03-15T16:58:44.287Z,94841.78
2023-03-15T17:01:11.560Z,94836.03
2023-03-15T17:03:38.390Z,94823.94
2023-03-15T17:06:07.747Z,94806.34
2023-03-15T17:08:35.997Z,94814.97
2023-03-15T17:11:02.817Z,94863.00
2023-03-15T17:13:32.029Z,94861.16
2023-03-15T17:15:58.834Z,94850.63
2023-03-15T17:18:28.652Z,94861.94
2023-03-15T17:20:55.454Z,94857.69
2023-03-15T17:23:22.573Z,94895.31
2023-03-15T17:25:49.448Z,94899.03
2023-03-15T17:28:16.394Z,94886.25
2023-03-15T17:30:43.133Z,94865.06
2023-03-15T17:33:11.582Z,94844.81
2023-03-15T17:35:43.922Z,94856.63
2023-03-15T17:38:18.151Z,94820.38
2023-03-15T17:40:45.684Z,94850.22
2023-03-15T17:43:15.009Z,94837.72
2023-03-15T17:45:42.248Z,94831.78
2023-03-15T17:48:09.482Z,94855.34
2023-03-15T17:50:38.220Z,94862.13
2023-03-15T17:53:12.322Z,94877.00
2023-03-15T17:55:39.156Z,94892.91
2023-03-15T17:58:18.161Z,94884.69
2023-03-15T18:00:45.227Z,94930.34
2023-03-15T18:03:13.570Z,94919.91
2023-03-15T18:05:40.828Z,94931.31
2023-03-15T18:08:12.277Z,94904.31
2023-03-15T18:10:43.848Z,94911.47
2023-03-15T18:13:14.035Z,94920.75
2023-03-15T18:15:41.212Z,94901.63
2023-03-15T18:18:08.178Z,94900.34
2023-03-15T18:20:37.764Z,94927.66
2023-03-15T18:23:05.173Z,94917.00
2023-03-15T18:25:34.305Z,94891.34
2023-03-15T18:28:02.367Z,94883.28
2023-03-15T18:30:31.429Z,94880.09
2023-03-15T18:32:58.334Z,94901.13
2023-03-15T18:35:31.584Z,94952.47
2023-03-15T18:37:59.105Z,94957.34
2023-03-15T18:40:29.430Z,94952.56
2023-03-15T18:42:57.956Z,94964.50
2023-03-15T18:45:37.922Z,94981.50
2023-03-15T18:48:05.409Z,94939.59
2023-03-15T18:50:33.791Z,94930.81
2023-03-15T18:53:00.974Z,94915.06
2023-03-15T18:55:27.733Z,94939.56
2023-03-15T18:57:55.266Z,94939.84
2023-03-15T19:00:27.429Z,94946.75
2023-03-15T19:02:56.570Z,94948.84
2023-03-15T19:05:24.389Z,94953.34
2023-03-15T19:07:52.196Z,94940.63
2023-03-15T19:10:20.762Z,94950.44
2023-03-15T19:12:48.918Z,94938.19
2023-03-15T19:15:17.668Z,94937.19
2023-03-15T19:17:47.042Z,94936.59
2023-03-15T19:20:16.337Z,94905.34
2023-03-15T19:22:45.116Z,94921.66
2023-03-15T19:25:13.914Z,94947.25
2023-03-15T19:27:44.577Z,94935.56
2023-03-15T19:30:17.342Z,94952.47
2023-03-15T19:32:46.154Z,94938.09
2023-03-15T19:35:13.016Z,94893.47
2023-03-15T19:37:39.889Z,94846.78
2023-03-15T19:40:12.088Z,94868.75
2023-03-15T19:42:39.201Z,94887.19
2023-03-15T19:45:07.771Z,94902.97
2023-03-15T19:47:34.545Z,94930.09
2023-03-15T19:50:02.293Z,94923.47
2023-03-15T19:52:29.397Z,94963.97
2023-03-15T19:54:56.783Z,94991.41
2023-03-15T19:57:23.860Z,95001.94
2023-03-15T19:59:52.878Z,95019.59
2023-03-15T20:02:21.230Z,95013.66
2023-03-15T20:04:48.989Z,95033.81
2023-03-15T20:07:18.217Z,95005.19
2023-03-15T20:09:45.618Z,95019.91
2023-03-15T20:12:13.618Z,95025.75
2023-03-15T20:14:43.233Z,95001.09
2023-03-15T20:17:10.121Z,95036.97
2023-03-15T20:19:38.188Z,95043.00
2023-03-15T20:22:06.642Z,95033.47
2023-03-15T20:24:33.624Z,95036.88
2023-03-15T20:27:00.546Z,95031.44
2023-03-15T20:29:27.314Z,95036.25
2023-03-15T20:31:55.341Z,95056.22
2023-03-15T20:34:23.484Z,95017.19
2023-03-15T20:36:53.747Z,95029.19
2023-03-15T20:39:24.232Z,95037.03
2023-03-15T20:41:51.604Z,95052.00
2023-03-15T20:44:19.835Z,95062.31
2023-03-15T20:46:47.031Z,95055.75
2023-03-15T20:49:14.904Z,95062.22
2023-03-15T20:51:41.643Z,95065.31
2023-03-15T20:54:09.743Z,95062.84
2023-03-15T20:56:36.854Z,95050.88
2023-03-15T20:59:03.604Z,95050.16
2023-03-15T21:01:30.476Z,95065.16
2023-03-15T21:03:57.574Z,95072.34
2023-03-15T21:06:25.365Z,95083.50
2023-03-15T21:08:53.720Z,95080.25
2023-03-15T21:11:20.850Z,95074.63
2023-03-15T21:13:47.762Z,95082.66
2023-03-15T21:16:14.791Z,95093.25
2023-03-15T21:18:44.865Z,95076.81
2023-03-15T21:21:12.451Z,95082.38
2023-03-15T21:23:42.178Z,95086.59
2023-03-15T21:26:11.994Z,95063.56
2023-03-15T21:28:40.878Z,95080.72
2023-03-15T21:31:09.769Z,95063.16
2023-03-15T21:33:37.212Z,95084.09
2023-03-15T21:36:05.096Z,95065.34
2023-03-15T21:38:34.191Z,95080.66
2023-03-15T21:41:05.998Z,95065.81
2023-03-15T21:43:34.559Z,95080.56
2023-03-15T21:46:03.889Z,95073.25
2023-03-15T21:48:32.431Z,95082.63
2023-03-15T21:51:00.025Z,95068.81
2023-03-15T21:53:26.974Z,95078.00
2023-03-15T21:55:58.276Z,95082.94
2023-03-15T21:58:26.858Z,95084.31
2023-03-15T22:01:06.336Z,95079.06
2023-03-15T22:03:34.500Z,95080.50
2023-03-15T22:06:01.980Z,95091.97
2023-03-15T22:08:28.880Z,95089.38
2023-03-15T22:10:58.200Z,95079.69
2023-03-15T22:13:26.658Z,95084.25
2023-03-15T22:15:54.105Z,95086.81
2023-03-15T22:18:21.300Z,95071.25
2023-03-15T22:20:51.799Z,95081.78
2023-03-15T22:23:18.984Z,95109.06
2023-03-15T22:25:46.011Z,95073.56
2023-03-15T22:28:13.421Z,95081.13
2023-03-15T22:30:41.638Z,95075.94
2023-03-15T22:33:10.091Z,95093.84
2023-03-15T22:35:36.826Z,95116.16
2023-03-15T22:38:10.433Z,95098.56
2023-03-15T22:40:39.684Z,95092.41
2023-03-15T22:43:08.113Z,95103.91
2023-03-15T22:45:35.381Z,95098.72
2023-03-15T22:48:02.861Z,95099.63
2023-03-15T22:50:29.718Z,95104.66
2023-03-15T22:52:56.934Z,95109.56
2023-03-15T22:55:25.575Z,95083.97
2023-03-15T22:57:54.574Z,95103.38
2023-03-15T23:00:22.499Z,95082.72
2023-03-15T23:02:49.821Z,95108.47
2023-03-15T23:05:17.978Z,95086.78
2023-03-15T23:07:45.138Z,95097.75
2023-03-15T23:10:12.331Z,95100.00
2023-03-15T23:12:39.817Z,95105.88
2023-03-15T23:15:07.677Z,95102.25
2023-03-15T23:17:34.849Z,95098.59
2023-03-15T23:20:01.609Z,95104.78
2023-03-15T23:22:29.931Z,95114.53
2023-03-15T23:24:58.191Z,95099.44
2023-03-15T23:27:26.056Z,95092.09
2023-03-15T23:29:54.929Z,95104.50
2023-03-15T23:32:23.478Z,95108.13
2023-03-15T23:34:51.134Z,95118.91
2023-03-15T23:37:17.821Z,95099.19
2023-03-15T23:39:44.663Z,95105.91
2023-03-15T23:42:12.052Z,95106.13
2023-03-15T23:44:38.790Z,95119.00
2023-03-15T23:47:06.508Z,95115.88
2023-03-15T23:49:34.029Z,95121.22
2023-03-15T23:52:05.947Z,95131.69
2023-03-15T23:54:40.303Z,95119.78
2023-03-15T23:57:12.995Z,95132.09
2023-03-15T23:59:41.799Z,95117.25
